Terminal Aerodrome Forecast
Issued by NWS

Home | Current Version | Previous Version | Graphics & Text | Print | Product List | Glossary On
Versions: 1 2 3 4 5 6 7 8 9 10 11 12 13 14 15 16 17 18 19 20
000
FTUS43 KGRB 301100
TAFAUW
TAF
KAUW 301137Z 3012/3112 29010KT P6SM SKC
     FM301500 27007KT P6SM SCT070 BKN250
     FM302100 21004KT P6SM SCT050 BKN100
      TEMPO 3022/3101 5SM -RA BKN020
     FM310100 09003KT 5SM -RA BR SCT006 OVC012
      TEMPO 3102/3106 2SM -RASN=

USA.gov is the U.S. government's official web portal to all federal, state and local government web resources and services.